Time;durP1;ratioP1;P1;durP2;ratioP2;P2;SDS_P1;SDS_P2;PMS_P1;PMS_P2;Temp;Humidity;BMP_temperature;BMP_pressure;BME280_temperature;BME280_humidity;BME280_pressure;Samples;Min_cycle;Max_cycle;Signal;HPM_P1;HPM_P2
2022/03/20 00:00:13;;;;;;;7.43;4.10;;;7.30;82.90;;;;;;5047672;28;20128;-41
2022/03/20 00:02:39;;;;;;;8.23;4.82;;;7.30;83.00;;;;;;5048419;28;20090;-42
2022/03/20 00:05:06;;;;;;;8.63;4.70;;;7.30;83.10;;;;;;5048399;28;20111;-42
2022/03/20 00:07:33;;;;;;;6.35;4.15;;;7.20;83.20;;;;;;5047984;28;20039;-40
2022/03/20 00:10:02;;;;;;;6.25;4.43;;;7.20;83.20;;;;;;5048127;28;20028;-43
2022/03/20 00:12:28;;;;;;;7.15;4.55;;;7.20;83.20;;;;;;5048419;28;20181;-41
2022/03/20 00:14:54;;;;;;;8.80;5.53;;;7.20;83.40;;;;;;5048113;28;20206;-42
2022/03/20 00:17:20;;;;;;;9.52;5.93;;;7.10;83.40;;;;;;5048458;28;20029;-41
2022/03/20 00:19:46;;;;;;;8.35;6.38;;;7.20;83.50;;;;;;5047104;28;20076;-41
2022/03/20 00:22:13;;;;;;;10.65;6.93;;;7.10;83.50;;;;;;5048509;28;20578;-41
2022/03/20 00:24:42;;;;;;;12.57;6.47;;;7.10;83.70;;;;;;5048548;28;20029;-40
2022/03/20 00:27:10;;;;;;;13.85;7.28;;;7.10;83.80;;;;;;5046918;28;20029;-37
2022/03/20 00:29:36;;;;;;;9.95;6.38;;;7.00;83.80;;;;;;5048107;28;20024;-42
2022/03/20 00:32:02;;;;;;;10.32;6.25;;;7.00;83.80;;;;;;5047690;28;20094;-42
2022/03/20 00:34:28;;;;;;;11.18;6.40;;;7.00;83.90;;;;;;5047366;28;20484;-42
2022/03/20 00:36:53;;;;;;;9.70;6.55;;;6.90;84.00;;;;;;5047405;28;20047;-42
2022/03/20 00:39:19;;;;;;;10.80;6.70;;;6.90;84.40;;;;;;5048381;28;20029;-42
2022/03/20 00:41:45;;;;;;;10.00;6.47;;;6.90;84.40;;;;;;5046502;28;20029;-41
2022/03/20 00:44:10;;;;;;;12.20;6.45;;;6.90;84.50;;;;;;5047968;28;20033;-41
2022/03/20 00:46:36;;;;;;;9.75;6.10;;;6.80;84.60;;;;;;5047644;28;20029;-39
2022/03/20 00:49:01;;;;;;;10.45;6.25;;;6.80;84.60;;;;;;5046531;28;20499;-41
2022/03/20 00:51:27;;;;;;;9.05;6.00;;;6.80;84.80;;;;;;5047747;28;20033;-41
2022/03/20 00:53:53;;;;;;;10.82;6.45;;;6.70;85.10;;;;;;5046855;28;20056;-41
2022/03/20 00:56:18;;;;;;;10.35;6.43;;;6.60;85.50;;;;;;5046732;28;20025;-41
2022/03/20 00:58:46;;;;;;;8.45;6.10;;;6.50;85.70;;;;;;5047084;28;20545;-41
2022/03/20 01:01:14;;;;;;;9.57;6.32;;;6.50;86.10;;;;;;5047636;28;20104;-41
2022/03/20 01:03:43;;;;;;;9.52;6.45;;;6.40;86.30;;;;;;5046539;28;20028;-40
2022/03/20 01:06:10;;;;;;;12.10;7.20;;;6.40;86.60;;;;;;5047468;28;20021;-42
2022/03/20 01:08:36;;;;;;;9.48;6.65;;;6.30;86.60;;;;;;5046811;28;20091;-39
2022/03/20 01:11:03;;;;;;;12.05;7.38;;;6.30;86.90;;;;;;5046837;28;20090;-39
2022/03/20 01:13:29;;;;;;;9.70;6.45;;;6.20;86.90;;;;;;5047280;28;20040;-42
2022/03/20 01:15:55;;;;;;;10.43;6.32;;;6.20;87.30;;;;;;5046120;28;20384;-40
2022/03/20 01:18:21;;;;;;;9.15;5.97;;;6.10;87.30;;;;;;5047048;28;20100;-41
2022/03/20 01:20:46;;;;;;;11.93;7.47;;;6.10;87.50;;;;;;5046862;28;20120;-40
2022/03/20 01:23:12;;;;;;;11.45;6.88;;;6.00;87.80;;;;;;5046008;28;20072;-42
2022/03/20 01:25:39;;;;;;;12.02;6.60;;;5.90;88.00;;;;;;5047210;28;20044;-39
2022/03/20 01:28:04;;;;;;;14.30;8.00;;;5.90;88.10;;;;;;5046885;28;20028;-42
2022/03/20 01:30:30;;;;;;;12.43;8.43;;;5.80;88.50;;;;;;5046364;28;20033;-42
2022/03/20 01:32:56;;;;;;;12.75;8.50;;;5.80;89.20;;;;;;5046562;28;20035;-37
2022/03/20 01:35:21;;;;;;;12.73;9.02;;;5.70;89.40;;;;;;5047207;28;20041;-42
2022/03/20 01:37:47;;;;;;;11.20;8.35;;;5.70;89.70;;;;;;5044683;28;20066;-41
2022/03/20 01:40:12;;;;;;;12.20;8.35;;;5.70;90.00;;;;;;5047168;28;20033;-42
2022/03/20 01:42:39;;;;;;;13.27;8.23;;;5.70;90.20;;;;;;5047328;28;20052;-40
2022/03/20 01:45:34;;;;;;;13.73;9.15;;;5.60;90.30;;;;;;5046377;28;20029;-42
2022/03/20 01:48:00;;;;;;;11.27;8.00;;;5.60;90.50;;;;;;5041625;28;20041;-42
2022/03/20 01:50:27;;;;;;;12.43;8.48;;;5.60;90.50;;;;;;5046456;28;20029;-42
2022/03/20 01:52:53;;;;;;;11.25;7.65;;;5.60;90.80;;;;;;5045229;28;20029;-40
2022/03/20 01:55:22;;;;;;;11.40;7.80;;;5.60;90.90;;;;;;5047156;28;20079;-42
2022/03/20 01:57:49;;;;;;;10.70;6.97;;;5.50;91.10;;;;;;5046059;28;20622;-40
2022/03/20 02:00:17;;;;;;;12.35;7.80;;;5.50;91.30;;;;;;5046357;28;20040;-42
2022/03/20 02:02:43;;;;;;;11.88;8.07;;;5.50;91.40;;;;;;5045875;28;20511;-42
2022/03/20 02:05:10;;;;;;;11.85;7.30;;;5.50;91.60;;;;;;5045877;28;20033;-40
2022/03/20 02:07:37;;;;;;;11.32;7.30;;;5.50;91.80;;;;;;5046680;28;20025;-41
2022/03/20 02:10:04;;;;;;;12.82;7.57;;;5.50;92.00;;;;;;5045784;28;20373;-42
2022/03/20 02:12:30;;;;;;;12.07;7.28;;;5.50;92.00;;;;;;5045519;28;20472;-40
2022/03/20 02:14:58;;;;;;;12.13;6.75;;;5.50;92.40;;;;;;5045651;28;20459;-43
2022/03/20 02:17:26;;;;;;;9.90;6.53;;;5.50;92.50;;;;;;5046836;28;20052;-40
2022/03/20 02:19:52;;;;;;;10.23;7.18;;;5.50;92.60;;;;;;5044760;28;20444;-40
2022/03/20 02:22:17;;;;;;;10.10;6.68;;;5.50;92.80;;;;;;5045998;28;20381;-40
2022/03/20 02:24:48;;;;;;;10.85;7.63;;;5.40;92.90;;;;;;5045811;28;20037;-41
2022/03/20 02:27:17;;;;;;;8.35;6.28;;;5.40;93.30;;;;;;5045600;28;20031;-41
2022/03/20 02:29:46;;;;;;;12.15;7.55;;;5.40;93.50;;;;;;5045669;28;20025;-41
2022/03/20 02:32:14;;;;;;;11.07;6.75;;;5.40;93.70;;;;;;5046310;28;20025;-42
2022/03/20 02:34:40;;;;;;;10.63;7.00;;;5.40;93.90;;;;;;5044603;28;20380;-40
2022/03/20 02:37:08;;;;;;;12.38;7.47;;;5.40;93.90;;;;;;5046416;28;20023;-40
2022/03/20 02:39:34;;;;;;;12.25;6.53;;;5.40;94.20;;;;;;5045886;28;20031;-42
2022/03/20 02:42:04;;;;;;;11.75;6.35;;;5.30;94.30;;;;;;5045169;28;20020;-39
2022/03/20 02:44:49;;;;;;;10.48;7.65;;;5.30;94.40;;;;;;5046162;28;20395;-42
2022/03/20 02:47:15;;;;;;;11.10;6.97;;;5.30;94.70;;;;;;5042247;28;20035;-40
2022/03/20 02:49:42;;;;;;;11.60;7.60;;;5.30;94.90;;;;;;5045639;28;20025;-41
2022/03/20 02:52:07;;;;;;;14.85;7.93;;;5.30;95.10;;;;;;5045874;28;20466;-41
2022/03/20 02:54:33;;;;;;;9.70;7.38;;;5.30;95.40;;;;;;5044676;28;20048;-40
2022/03/20 02:57:04;;;;;;;10.68;7.35;;;5.30;95.40;;;;;;5045300;28;20017;-40
2022/03/20 02:59:30;;;;;;;10.90;7.45;;;5.30;95.50;;;;;;5046211;28;20443;-40
2022/03/20 03:01:55;;;;;;;10.60;7.28;;;5.20;95.60;;;;;;5044558;28;20691;-42
2022/03/20 03:04:23;;;;;;;12.23;8.10;;;5.20;95.80;;;;;;5046098;28;20036;-40
2022/03/20 03:06:48;;;;;;;13.65;8.30;;;5.20;96.20;;;;;;5044944;28;20053;-40
2022/03/20 03:11:58;;;;;;;13.80;8.57;;;5.20;96.10;;;;;;5045396;28;20040;-41
2022/03/20 03:17:07;;;;;;;11.07;8.43;;;5.20;96.40;;;;;;5044931;28;20091;-41
2022/03/20 03:19:33;;;;;;;10.88;8.38;;;5.10;96.40;;;;;;5045949;28;20739;-41
2022/03/20 03:22:01;;;;;;;14.90;9.38;;;5.10;96.50;;;;;;5045370;28;20075;-41
2022/03/20 03:24:26;;;;;;;11.48;8.25;;;5.10;96.60;;;;;;5044974;28;20861;-41
2022/03/20 03:26:52;;;;;;;12.90;8.27;;;5.10;96.60;;;;;;5044887;28;20086;-42
2022/03/20 03:29:17;;;;;;;14.10;9.93;;;5.10;96.70;;;;;;5045018;28;20083;-40
2022/03/20 03:31:43;;;;;;;14.60;9.95;;;5.10;96.80;;;;;;5044967;28;20032;-40
2022/03/20 03:36:53;;;;;;;14.82;9.25;;;5.00;97.00;;;;;;5043968;28;20036;-41
2022/03/20 03:39:19;;;;;;;16.60;9.30;;;5.00;97.10;;;;;;5035048;28;20033;-41
2022/03/20 03:41:44;;;;;;;15.20;10.00;;;5.00;97.10;;;;;;5044834;28;20018;-40
2022/03/20 03:44:10;;;;;;;13.52;9.50;;;5.00;97.10;;;;;;5044448;28;20528;-40
2022/03/20 03:46:36;;;;;;;15.05;10.18;;;5.00;97.10;;;;;;5045302;28;20029;-41
2022/03/20 03:49:02;;;;;;;14.65;10.27;;;5.00;97.10;;;;;;5044639;28;20021;-40
2022/03/20 03:51:28;;;;;;;14.98;9.82;;;5.00;97.10;;;;;;5044610;28;20054;-41
2022/03/20 03:53:53;;;;;;;16.85;11.63;;;4.90;97.10;;;;;;5044044;28;20377;-41
2022/03/20 03:56:19;;;;;;;18.23;11.57;;;5.00;97.10;;;;;;5045536;28;20028;-40
2022/03/20 03:58:45;;;;;;;16.05;11.32;;;5.00;97.10;;;;;;5043475;28;20025;-41
2022/03/20 04:01:10;;;;;;;18.73;11.85;;;5.00;97.40;;;;;;5045415;28;20032;-39
2022/03/20 04:03:36;;;;;;;15.55;11.35;;;5.00;97.10;;;;;;5048428;28;20688;-40
2022/03/20 04:06:04;;;;;;;18.55;12.60;;;5.10;97.00;;;;;;5047635;28;20071;-40
2022/03/20 04:08:29;;;;;;;18.25;11.50;;;5.10;96.90;;;;;;5048608;28;20017;-41
2022/03/20 04:10:55;;;;;;;19.02;12.80;;;5.20;96.90;;;;;;5048337;28;20032;-39
2022/03/20 04:13:21;;;;;;;18.73;12.50;;;5.20;96.80;;;;;;5047565;28;20032;-41
2022/03/20 04:15:46;;;;;;;19.98;13.38;;;5.20;96.70;;;;;;5048178;28;20068;-41
2022/03/20 04:18:12;;;;;;;19.08;12.30;;;5.20;96.70;;;;;;5048381;28;20067;-41
2022/03/20 04:20:37;;;;;;;19.05;13.18;;;5.20;96.60;;;;;;5047571;28;20037;-41
2022/03/20 04:25:47;;;;;;;19.25;13.45;;;5.30;96.30;;;;;;5046986;28;20035;-40
2022/03/20 04:28:13;;;;;;;17.17;11.75;;;5.30;96.20;;;;;;5048489;28;20108;-40
2022/03/20 04:30:38;;;;;;;24.48;13.70;;;5.30;96.10;;;;;;5048356;28;20028;-40
2022/03/20 04:33:04;;;;;;;20.95;12.98;;;5.30;95.90;;;;;;5047463;28;20048;-40
2022/03/20 04:35:30;;;;;;;18.35;13.13;;;5.40;95.90;;;;;;5048012;28;20021;-43
2022/03/20 04:37:56;;;;;;;22.45;13.15;;;5.40;95.80;;;;;;5047243;28;20025;-42
2022/03/20 04:40:22;;;;;;;20.65;12.85;;;5.40;95.60;;;;;;5047667;28;20459;-41
2022/03/20 04:42:49;;;;;;;22.30;13.57;;;5.40;95.50;;;;;;5047564;28;20484;-41
2022/03/20 04:45:14;;;;;;;21.30;14.25;;;5.40;95.30;;;;;;5048068;28;20025;-41
2022/03/20 04:58:46;;;;;;;21.70;13.43;;;5.50;94.80;;;;;;5047720;28;20130;-40
2022/03/20 05:01:12;;;;;;;20.27;13.55;;;5.50;94.60;;;;;;5046713;28;20021;-41
2022/03/20 05:03:38;;;;;;;22.92;14.18;;;5.50;94.50;;;;;;5047234;28;20039;-42
2022/03/20 05:06:07;;;;;;;18.73;12.95;;;5.50;94.60;;;;;;5047482;28;20040;-41
2022/03/20 05:08:35;;;;;;;21.23;13.90;;;5.60;94.50;;;;;;5046599;28;20045;-41
2022/03/20 05:13:45;;;;;;;21.00;14.50;;;5.60;94.40;;;;;;5046962;28;20036;-41
2022/03/20 05:16:11;;;;;;;18.65;13.35;;;5.60;94.30;;;;;;5046199;28;20040;-42
2022/03/20 05:18:36;;;;;;;20.35;13.75;;;5.60;94.20;;;;;;5047013;28;20029;-42
2022/03/20 05:21:02;;;;;;;21.58;13.23;;;5.60;94.20;;;;;;5046484;28;20031;-41
2022/03/20 05:23:27;;;;;;;20.70;14.48;;;5.60;94.20;;;;;;5046792;28;20608;-40
2022/03/20 05:25:53;;;;;;;21.50;14.50;;;5.60;94.00;;;;;;5046304;28;20376;-42
2022/03/20 05:28:21;;;;;;;22.90;13.27;;;5.60;94.00;;;;;;5046943;28;20077;-42
2022/03/20 05:30:46;;;;;;;21.30;14.10;;;5.60;94.00;;;;;;5046013;28;20040;-40
2022/03/20 05:33:12;;;;;;;22.13;14.23;;;5.60;93.90;;;;;;5046960;28;20040;-40
2022/03/20 05:35:39;;;;;;;26.75;15.43;;;5.60;93.80;;;;;;5046340;28;20036;-42
2022/03/20 05:38:09;;;;;;;24.60;14.32;;;5.60;93.70;;;;;;5045946;28;20464;-41
2022/03/20 05:40:36;;;;;;;21.38;14.95;;;5.60;93.60;;;;;;5046921;28;20061;-40
2022/03/20 05:43:02;;;;;;;20.85;14.45;;;5.50;93.50;;;;;;5042449;28;20029;-42
2022/03/20 05:45:28;;;;;;;21.33;13.93;;;5.50;93.60;;;;;;5047422;28;20074;-42
2022/03/20 05:47:54;;;;;;;22.08;13.63;;;5.50;93.40;;;;;;5045655;28;20021;-42
2022/03/20 05:50:19;;;;;;;21.48;14.63;;;5.50;93.40;;;;;;5045627;28;20106;-41
2022/03/20 05:52:45;;;;;;;22.35;14.80;;;5.50;93.40;;;;;;5046077;28;20370;-41
2022/03/20 05:55:10;;;;;;;19.70;14.20;;;5.50;93.20;;;;;;5046317;28;20056;-40
2022/03/20 06:00:26;;;;;;;27.05;15.45;;;5.50;93.20;;;;;;5027287;28;20064;-40
2022/03/20 06:02:52;;;;;;;20.42;14.50;;;5.50;93.20;;;;;;5040642;28;20028;-42
2022/03/20 06:05:18;;;;;;;19.17;14.15;;;5.50;93.10;;;;;;5046483;28;20051;-37
2022/03/20 06:07:49;;;;;;;19.45;14.85;;;5.50;93.10;;;;;;5045897;28;20376;-41
2022/03/20 06:10:17;;;;;;;20.45;14.00;;;5.50;93.00;;;;;;5046411;28;20024;-41
2022/03/20 06:12:43;;;;;;;22.10;14.48;;;5.50;93.00;;;;;;5045222;28;20583;-42
2022/03/20 06:15:09;;;;;;;22.30;14.75;;;5.50;92.80;;;;;;5045913;28;20045;-42
2022/03/20 06:17:40;;;;;;;22.58;14.23;;;5.50;92.70;;;;;;5045978;28;20021;-40
2022/03/20 06:20:08;;;;;;;21.00;14.40;;;5.50;92.70;;;;;;5046117;28;20059;-41
2022/03/20 06:22:35;;;;;;;18.70;13.70;;;5.50;92.80;;;;;;5046167;28;20090;-41
2022/03/20 06:25:08;;;;;;;21.10;14.13;;;5.40;92.60;;;;;;5046048;28;20386;-41
2022/03/20 06:27:56;;;;;;;18.90;14.07;;;5.50;92.60;;;;;;5046281;28;20027;-40
2022/03/20 06:30:22;;;;;;;22.77;14.93;;;5.50;92.50;;;;;;5038170;28;20033;-40
2022/03/20 06:32:48;;;;;;;19.88;14.00;;;5.50;92.50;;;;;;5044783;28;20033;-41
2022/03/20 06:35:17;;;;;;;23.20;14.90;;;5.50;92.40;;;;;;5046360;28;20037;-41
2022/03/20 06:37:43;;;;;;;22.88;14.77;;;5.50;92.30;;;;;;5045528;28;20123;-41
2022/03/20 06:40:10;;;;;;;22.75;14.93;;;5.50;92.30;;;;;;5045096;28;20150;-41
2022/03/20 06:42:36;;;;;;;19.75;13.75;;;5.50;92.30;;;;;;5046000;28;20021;-40
2022/03/20 06:45:05;;;;;;;22.67;14.93;;;5.60;92.30;;;;;;5045901;28;20703;-41
2022/03/20 06:47:32;;;;;;;24.02;16.13;;;5.60;92.00;;;;;;5045524;28;20036;-37
2022/03/20 06:49:59;;;;;;;21.80;14.63;;;5.60;91.70;;;;;;5045400;28;20194;-41
2022/03/20 06:52:28;;;;;;;21.58;14.95;;;5.60;91.70;;;;;;5046158;28;20106;-41
2022/03/20 06:54:58;;;;;;;22.05;15.63;;;5.60;91.60;;;;;;5044052;28;20052;-43
2022/03/20 06:57:25;;;;;;;23.15;15.63;;;5.50;91.50;;;;;;5046177;28;20396;-43
2022/03/20 06:59:52;;;;;;;19.88;14.20;;;5.50;91.60;;;;;;5045629;28;20658;-41
2022/03/20 07:02:18;;;;;;;21.08;15.02;;;5.50;91.60;;;;;;5045511;28;20025;-39
2022/03/20 07:04:47;;;;;;;26.13;15.55;;;5.50;91.50;;;;;;5044520;28;20516;-44
2022/03/20 07:07:16;;;;;;;22.80;15.43;;;5.50;91.50;;;;;;5045846;28;20102;-41
2022/03/20 07:09:42;;;;;;;27.40;16.45;;;5.50;91.40;;;;;;5044529;28;20098;-42
2022/03/20 07:12:12;;;;;;;22.33;15.73;;;5.40;91.10;;;;;;5045851;28;20112;-41
2022/03/20 07:14:38;;;;;;;22.02;15.80;;;5.40;91.10;;;;;;5044690;28;20032;-40
2022/03/20 07:17:12;;;;;;;25.00;16.20;;;5.50;90.90;;;;;;5045501;28;20033;-41
2022/03/20 07:19:38;;;;;;;21.95;16.08;;;5.40;90.80;;;;;;5045272;28;20665;-41
2022/03/20 07:22:05;;;;;;;23.27;16.23;;;5.50;90.90;;;;;;5044569;28;20095;-41
2022/03/20 07:24:34;;;;;;;23.65;15.70;;;5.50;90.70;;;;;;5045532;28;20496;-41
2022/03/20 07:29:44;;;;;;;22.98;15.05;;;5.50;90.60;;;;;;5044132;28;20032;-42
2022/03/20 07:32:10;;;;;;;24.35;16.88;;;5.50;90.40;;;;;;5045777;28;20021;-41
2022/03/20 07:34:38;;;;;;;24.73;16.77;;;5.50;90.20;;;;;;5045047;28;20037;-41
2022/03/20 07:37:05;;;;;;;25.30;16.08;;;5.50;90.10;;;;;;5046604;28;20037;-42
2022/03/20 07:39:31;;;;;;;22.20;15.50;;;5.60;90.20;;;;;;5049175;28;20025;-39
2022/03/20 07:41:58;;;;;;;23.80;16.17;;;5.60;90.20;;;;;;5048855;28;20035;-42
2022/03/20 07:44:24;;;;;;;25.30;17.40;;;5.60;90.10;;;;;;5048655;28;20053;-40
2022/03/20 07:46:52;;;;;;;26.05;17.50;;;5.60;90.00;;;;;;5049259;28;20052;-41
2022/03/20 07:49:21;;;;;;;24.65;16.73;;;5.70;90.00;;;;;;5049201;28;20025;-42
2022/03/20 07:51:48;;;;;;;30.17;15.85;;;5.70;89.70;;;;;;5047613;28;20072;-40
2022/03/20 07:54:14;;;;;;;23.80;16.02;;;5.80;89.10;;;;;;5046561;28;20140;-42
2022/03/20 07:56:40;;;;;;;25.23;17.25;;;5.80;89.00;;;;;;5046984;28;20036;-41
2022/03/20 07:59:06;;;;;;;28.98;17.38;;;5.80;88.40;;;;;;5047991;28;20035;-40
2022/03/20 08:01:38;;;;;;;23.42;16.98;;;5.80;88.00;;;;;;5047545;28;20041;-38
2022/03/20 08:04:07;;;;;;;25.73;16.70;;;5.80;87.70;;;;;;5046928;28;20033;-40
2022/03/20 08:06:33;;;;;;;23.15;16.42;;;5.80;87.80;;;;;;5047728;28;20328;-40
2022/03/20 08:08:59;;;;;;;25.08;17.45;;;5.80;87.10;;;;;;5048016;28;20017;-42
2022/03/20 08:11:29;;;;;;;26.05;17.63;;;5.80;86.90;;;;;;5047739;28;20024;-41
2022/03/20 08:13:54;;;;;;;27.08;18.90;;;5.90;86.70;;;;;;5047652;28;20091;-42
2022/03/20 08:16:22;;;;;;;24.58;17.73;;;6.00;86.20;;;;;;5047501;28;20771;-38
2022/03/20 08:18:48;;;;;;;24.13;17.92;;;6.00;86.60;;;;;;5047055;28;20055;-40
2022/03/20 08:21:14;;;;;;;28.88;19.50;;;6.10;85.90;;;;;;5046903;28;20595;-42
2022/03/20 08:23:40;;;;;;;24.88;17.67;;;6.20;85.30;;;;;;5047620;28;20017;-40
2022/03/20 08:26:08;;;;;;;28.40;17.70;;;6.20;85.60;;;;;;5046760;28;20401;-41
2022/03/20 08:28:38;;;;;;;23.38;16.27;;;6.30;85.40;;;;;;5047071;28;20025;-41
2022/03/20 08:31:06;;;;;;;25.33;18.42;;;6.40;85.10;;;;;;5047399;28;20040;-41
2022/03/20 08:33:32;;;;;;;23.52;17.02;;;6.40;83.80;;;;;;5045963;28;20021;-41
2022/03/20 08:35:59;;;;;;;23.80;17.30;;;6.50;84.00;;;;;;5046665;28;20033;-41
2022/03/20 08:38:24;;;;;;;25.73;17.77;;;6.60;83.30;;;;;;5047424;28;20056;-40
2022/03/20 08:40:50;;;;;;;25.48;17.88;;;6.70;83.30;;;;;;5045704;28;20524;-42
2022/03/20 08:43:16;;;;;;;25.08;18.77;;;6.70;83.30;;;;;;5047012;28;20362;-41
2022/03/20 08:45:43;;;;;;;26.30;18.55;;;6.80;83.00;;;;;;5046830;28;20511;-42
2022/03/20 08:48:09;;;;;;;27.33;17.48;;;6.90;82.30;;;;;;5046160;28;20025;-39
2022/03/20 08:50:35;;;;;;;26.17;17.58;;;6.90;81.90;;;;;;5047754;28;20029;-42
2022/03/20 08:53:01;;;;;;;27.90;18.20;;;7.00;81.90;;;;;;5046237;28;20048;-41
2022/03/20 08:55:27;;;;;;;26.73;17.42;;;7.10;81.60;;;;;;5047621;28;20439;-42
2022/03/20 08:57:54;;;;;;;26.67;17.20;;;7.10;80.80;;;;;;5046763;28;20020;-40
2022/03/20 09:00:22;;;;;;;28.15;18.38;;;7.20;81.10;;;;;;5047279;28;20033;-41
2022/03/20 09:02:49;;;;;;;25.98;17.67;;;7.20;80.30;;;;;;5046884;28;20017;-43
2022/03/20 09:05:16;;;;;;;25.95;17.80;;;7.30;80.60;;;;;;5047365;28;20021;-40
2022/03/20 09:07:43;;;;;;;28.02;19.10;;;7.30;80.60;;;;;;5046474;28;20075;-44
2022/03/20 09:10:10;;;;;;;25.55;18.95;;;7.30;80.30;;;;;;5046822;28;20166;-41
2022/03/20 09:12:40;;;;;;;24.45;18.67;;;7.40;80.10;;;;;;5046804;28;20045;-41
2022/03/20 09:15:12;;;;;;;28.98;20.02;;;7.40;79.80;;;;;;5043302;28;20492;-42
2022/03/20 09:20:23;;;;;;;33.70;20.00;;;7.40;79.30;;;;;;5044865;28;20051;-40
2022/03/20 09:22:49;;;;;;;29.38;19.67;;;7.40;79.00;;;;;;5046379;28;20033;-42
2022/03/20 09:25:14;;;;;;;26.52;18.70;;;7.50;79.10;;;;;;5046446;28;20021;-42
2022/03/20 09:27:40;;;;;;;28.20;19.65;;;7.60;79.90;;;;;;5046802;28;20033;-41
2022/03/20 09:30:06;;;;;;;29.13;20.27;;;7.70;78.70;;;;;;5046125;28;20107;-42
2022/03/20 09:32:32;;;;;;;30.52;20.25;;;7.70;77.90;;;;;;5046997;28;20040;-41
2022/03/20 09:34:57;;;;;;;28.23;20.20;;;7.80;77.80;;;;;;5046258;28;20041;-42
2022/03/20 09:37:22;;;;;;;28.92;20.30;;;7.80;77.50;;;;;;5046653;28;20115;-41
2022/03/20 09:39:48;;;;;;;28.17;20.20;;;7.90;77.40;;;;;;5046323;28;20095;-42
2022/03/20 09:42:13;;;;;;;31.02;20.85;;;8.00;77.30;;;;;;5045867;28;20029;-40
2022/03/20 09:44:42;;;;;;;30.00;19.25;;;8.00;76.90;;;;;;5046803;28;20128;-42
2022/03/20 09:47:17;;;;;;;24.23;18.20;;;8.10;76.90;;;;;;5046937;28;20112;-39
2022/03/20 09:49:44;;;;;;;29.10;18.85;;;8.20;77.30;;;;;;5045043;28;20041;-41
2022/03/20 09:52:10;;;;;;;26.95;19.73;;;8.30;77.20;;;;;;5047088;28;20120;-43
2022/03/20 09:54:36;;;;;;;27.52;19.48;;;8.50;76.60;;;;;;5045684;28;20041;-41
2022/03/20 09:57:04;;;;;;;28.35;19.55;;;8.60;76.50;;;;;;5045794;28;20470;-42
2022/03/20 09:59:30;;;;;;;29.20;20.45;;;8.70;76.30;;;;;;5045582;28;20662;-44
2022/03/20 10:02:02;;;;;;;27.35;20.00;;;8.70;75.30;;;;;;5045842;28;20484;-41
2022/03/20 10:04:28;;;;;;;31.85;21.33;;;8.70;75.20;;;;;;5045746;28;20020;-42
2022/03/20 10:06:53;;;;;;;30.02;20.15;;;8.80;74.90;;;;;;5045995;28;20036;-41
2022/03/20 10:09:19;;;;;;;30.00;22.00;;;8.70;74.90;;;;;;5046223;28;20017;-41
2022/03/20 10:11:51;;;;;;;32.35;22.13;;;8.70;75.10;;;;;;5044902;28;20108;-42
2022/03/20 10:14:22;;;;;;;30.75;20.63;;;8.70;74.60;;;;;;5046394;28;20039;-42
2022/03/20 10:16:53;;;;;;;30.73;21.88;;;8.70;75.10;;;;;;5045095;28;20036;-41
2022/03/20 10:19:27;;;;;;;28.38;22.10;;;8.80;75.30;;;;;;5045509;28;20025;-40
2022/03/20 10:22:00;;;;;;;29.95;21.83;;;8.80;75.00;;;;;;5045638;28;20044;-43
2022/03/20 10:24:29;;;;;;;31.52;21.83;;;8.90;74.90;;;;;;5045465;28;20472;-42
2022/03/20 10:27:00;;;;;;;28.90;20.55;;;8.90;74.80;;;;;;5045362;28;20076;-43
2022/03/20 10:29:29;;;;;;;30.50;21.40;;;8.90;74.60;;;;;;5046428;28;20036;-42
2022/03/20 10:31:58;;;;;;;29.13;20.75;;;8.90;74.50;;;;;;5044853;28;20106;-39
2022/03/20 10:34:24;;;;;;;27.70;21.45;;;9.00;74.30;;;;;;5046302;28;20033;-41
2022/03/20 10:36:50;;;;;;;26.00;18.83;;;9.00;74.50;;;;;;5045358;28;20017;-43
2022/03/20 10:39:19;;;;;;;29.77;20.88;;;9.10;75.00;;;;;;5045431;28;20021;-40
2022/03/20 10:41:46;;;;;;;29.60;21.85;;;9.10;74.80;;;;;;5045088;28;20017;-40
2022/03/20 10:44:14;;;;;;;29.27;20.65;;;9.20;74.30;;;;;;5045665;28;20028;-42
2022/03/20 10:46:41;;;;;;;31.77;20.85;;;9.20;74.50;;;;;;5043496;28;20029;-40
2022/03/20 10:49:07;;;;;;;29.52;21.25;;;9.20;74.30;;;;;;5045081;28;20975;-42
2022/03/20 10:51:37;;;;;;;31.20;21.95;;;9.30;74.30;;;;;;5045633;28;20468;-42
2022/03/20 10:54:10;;;;;;;28.10;20.25;;;9.40;73.80;;;;;;5045137;28;20045;-41
2022/03/20 10:56:57;;;;;;;29.83;21.08;;;9.40;73.90;;;;;;5045344;28;20473;-42
2022/03/20 10:59:24;;;;;;;29.38;21.70;;;9.40;74.10;;;;;;5045548;28;20158;-40
2022/03/20 11:01:50;;;;;;;27.08;20.35;;;9.40;74.10;;;;;;5044565;28;20824;-40
2022/03/20 11:04:17;;;;;;;27.40;19.83;;;9.40;74.70;;;;;;5046158;28;20094;-42
2022/03/20 11:06:44;;;;;;;23.98;18.55;;;9.40;74.80;;;;;;5044433;28;20020;-41
2022/03/20 11:09:10;;;;;;;29.70;19.63;;;9.40;75.10;;;;;;5045292;28;20045;-42
2022/03/20 11:11:50;;;;;;;30.40;22.10;;;9.30;74.50;;;;;;5048612;28;20087;-41
2022/03/20 11:14:20;;;;;;;28.50;20.50;;;9.30;74.10;;;;;;5047631;28;20154;-42
2022/03/20 11:17:06;;;;;;;27.45;20.45;;;9.30;74.30;;;;;;5048896;28;20037;-41
2022/03/20 11:19:34;;;;;;;29.38;20.30;;;9.30;74.40;;;;;;5047659;28;20051;-40
2022/03/20 11:22:03;;;;;;;26.95;19.67;;;9.40;74.30;;;;;;5049139;28;20043;-43
2022/03/20 11:24:29;;;;;;;29.80;21.20;;;9.40;74.10;;;;;;5049535;28;20027;-43
2022/03/20 11:26:59;;;;;;;30.30;21.88;;;9.40;73.80;;;;;;5048902;28;20039;-41
2022/03/20 11:29:26;;;;;;;28.83;20.95;;;9.50;73.90;;;;;;5048598;28;20035;-42
2022/03/20 11:31:53;;;;;;;28.65;20.35;;;9.60;74.30;;;;;;5048927;28;20025;-41
2022/03/20 11:34:19;;;;;;;28.55;20.95;;;9.70;74.10;;;;;;5049027;28;20037;-41
2022/03/20 11:37:05;;;;;;;29.88;22.52;;;9.80;73.90;;;;;;5047845;28;20400;-39
2022/03/20 11:39:31;;;;;;;26.67;19.38;;;9.80;73.60;;;;;;5049192;28;20026;-41
2022/03/20 11:42:24;;;;;;;27.55;19.95;;;9.80;73.90;;;;;;5048014;28;20041;-42
2022/03/20 11:45:04;;;;;;;26.88;20.52;;;9.80;74.60;;;;;;5048199;28;20040;-44
2022/03/20 11:47:31;;;;;;;27.88;19.10;;;9.80;74.60;;;;;;5049275;28;20040;-42
2022/03/20 11:50:15;;;;;;;27.23;19.48;;;9.70;74.80;;;;;;5047809;28;20377;-40
2022/03/20 11:52:48;;;;;;;30.63;22.17;;;9.80;75.30;;;;;;5048718;28;20041;-42
2022/03/20 11:55:40;;;;;;;30.20;21.75;;;9.80;75.90;;;;;;5048962;28;20037;-42
2022/03/20 11:58:16;;;;;;;31.23;21.45;;;9.80;76.30;;;;;;5048426;28;20104;-37
2022/03/20 12:00:44;;;;;;;31.42;21.27;;;9.80;76.30;;;;;;5045216;28;20210;-42
2022/03/20 12:03:13;;;;;;;27.17;22.05;;;9.90;76.70;;;;;;5047785;28;20416;-41
2022/03/20 12:05:41;;;;;;;24.90;19.50;;;10.00;76.80;;;;;;5046980;28;20494;-42
2022/03/20 12:08:44;;;;;;;27.92;20.90;;;10.10;76.90;;;;;;5048804;28;20037;-40
2022/03/20 12:11:43;;;;;;;28.17;19.35;;;10.10;77.10;;;;;;5048081;28;20029;-41
2022/03/20 12:14:32;;;;;;;25.80;18.98;;;10.10;77.00;;;;;;5048744;28;20029;-41
2022/03/20 12:17:00;;;;;;;26.67;20.80;;;10.20;77.70;;;;;;5039181;28;20044;-42
2022/03/20 12:19:53;;;;;;;27.42;19.92;;;10.30;77.00;;;;;;5048391;28;20400;-42
2022/03/20 12:22:19;;;;;;;23.20;16.67;;;10.30;76.70;;;;;;5048148;28;20116;-42
2022/03/20 12:24:53;;;;;;;24.05;18.83;;;10.40;76.80;;;;;;5047649;28;20112;-41
2022/03/20 12:27:24;;;;;;;25.35;19.27;;;10.40;76.60;;;;;;5048334;28;20080;-41
2022/03/20 12:30:03;;;;;;;26.90;19.85;;;10.50;76.30;;;;;;5047618;28;20111;-40
2022/03/20 12:32:46;;;;;;;29.15;21.40;;;10.50;75.70;;;;;;5047984;28;20036;-41
2022/03/20 12:35:15;;;;;;;28.30;20.80;;;10.50;75.30;;;;;;5048127;28;20036;-42
2022/03/20 12:37:42;;;;;;;28.30;21.20;;;10.40;75.00;;;;;;5048021;28;20029;-41
2022/03/20 12:40:20;;;;;;;32.67;21.15;;;10.40;75.20;;;;;;5047520;28;20102;-39
2022/03/20 12:43:07;;;;;;;26.60;19.67;;;10.40;75.30;;;;;;5047820;28;20465;-42
2022/03/20 12:45:44;;;;;;;26.27;19.20;;;10.40;75.10;;;;;;5046961;28;20019;-42
2022/03/20 12:48:15;;;;;;;24.13;18.65;;;10.40;75.20;;;;;;5048369;28;20031;-41
2022/03/20 12:50:46;;;;;;;25.83;19.50;;;10.50;75.10;;;;;;5047301;28;20053;-41
2022/03/20 12:53:14;;;;;;;26.25;19.08;;;10.60;74.70;;;;;;5047323;28;20048;-38
2022/03/20 12:55:41;;;;;;;25.58;19.67;;;10.70;74.90;;;;;;5047646;28;20032;-43
2022/03/20 12:58:14;;;;;;;27.63;20.60;;;10.70;74.50;;;;;;5047464;28;20745;-43
2022/03/20 13:00:40;;;;;;;28.95;20.50;;;10.60;74.20;;;;;;5046793;28;20107;-38
2022/03/20 13:03:10;;;;;;;23.80;18.88;;;10.60;74.40;;;;;;5047282;28;20557;-41
2022/03/20 13:05:51;;;;;;;25.92;18.63;;;10.60;74.70;;;;;;5047343;28;20112;-42
2022/03/20 13:08:40;;;;;;;27.25;20.73;;;10.60;74.70;;;;;;5046909;28;20053;-41
2022/03/20 13:11:48;;;;;;;28.33;20.58;;;10.50;75.20;;;;;;5046745;28;20599;-43
2022/03/20 13:13:58;;;;;;;27.60;20.25;;;10.50;74.60;;;;;;5045991;28;20041;-43
2022/03/20 13:16:26;;;;;;;27.60;20.25;;;10.40;74.60;;;;;;5047285;28;20483;-41
2022/03/20 13:18:51;;;;;;;28.73;19.33;;;10.50;75.00;;;;;;5046997;28;20032;-41